Time;durP1;ratioP1;P1;durP2;ratioP2;P2;SDS_P1;SDS_P2;PMS_P1;PMS_P2;Temp;Humidity;BMP_temperature;BMP_pressure;BME280_temperature;BME280_humidity;BME280_pressure;Samples;Min_cycle;Max_cycle;Signal;HPM_P1;HPM_P2
2023/10/04 00:00:15;;;;;;;10.48;2.38;;;;;;;13.69;96.07;102068.59;10465835;28;20091;-65
2023/10/04 00:05:37;;;;;;;9.40;2.05;;;;;;;13.61;96.17;102072.25;10469701;28;20106;-65
2023/10/04 00:11:01;;;;;;;6.68;2.05;;;;;;;13.62;95.93;102079.19;10468793;28;20040;-65
2023/10/04 00:16:26;;;;;;;12.05;2.17;;;;;;;13.64;95.63;102080.00;10485422;28;20043;-65
2023/10/04 00:21:47;;;;;;;11.45;2.72;;;;;;;13.63;95.59;102089.53;10491594;28;20057;-65
2023/10/04 00:27:09;;;;;;;10.18;2.15;;;;;;;13.70;94.71;102098.03;10472214;28;20037;-65
2023/10/04 00:32:31;;;;;;;9.77;2.20;;;;;;;13.68;94.95;102103.28;10476840;28;20063;-65
2023/10/04 00:37:57;;;;;;;9.93;2.20;;;;;;;13.67;94.45;102106.78;10486301;28;20494;-65
2023/10/04 00:43:20;;;;;;;7.20;2.05;;;;;;;13.69;94.51;102114.56;10475835;28;20518;-66
2023/10/04 00:48:42;;;;;;;10.85;1.92;;;;;;;13.72;94.36;102115.34;10465447;28;20052;-65
2023/10/04 00:54:08;;;;;;;8.95;2.05;;;;;;;13.68;94.52;102113.69;10473927;28;20049;-65
2023/10/04 00:59:29;;;;;;;5.75;1.70;;;;;;;13.67;94.42;102130.22;10462967;28;20072;-65
2023/10/04 01:04:51;;;;;;;5.97;1.80;;;;;;;13.68;93.85;102125.88;10496857;28;20067;-64
2023/10/04 01:10:16;;;;;;;5.60;1.65;;;;;;;13.68;93.71;102137.09;10478344;28;20045;-65
2023/10/04 01:15:39;;;;;;;6.87;1.93;;;;;;;13.66;94.26;102141.47;10478698;28;20136;-65
2023/10/04 01:21:01;;;;;;;7.45;1.90;;;;;;;13.67;93.86;102143.22;10492499;28;20053;-66
2023/10/04 01:26:25;;;;;;;8.25;2.38;;;;;;;13.64;94.64;102142.44;10498584;28;20060;-66
2023/10/04 01:31:47;;;;;;;8.23;2.00;;;;;;;13.64;94.54;102145.03;10486446;28;20044;-66
2023/10/04 01:37:10;;;;;;;5.57;1.73;;;;;;;13.61;94.46;102138.13;10472002;28;20053;-65
2023/10/04 01:42:31;;;;;;;9.05;2.17;;;;;;;13.58;94.30;102148.63;10470873;28;20048;-65
2023/10/04 01:47:53;;;;;;;7.25;1.90;;;;;;;13.60;94.39;102145.97;10477433;28;20045;-65
2023/10/04 01:53:16;;;;;;;7.78;2.00;;;;;;;13.60;94.37;102145.97;10474834;28;20052;-65
2023/10/04 01:58:37;;;;;;;8.98;1.90;;;;;;;13.61;94.76;102138.13;10482875;28;20041;-65
2023/10/04 02:04:05;;;;;;;9.75;2.15;;;;;;;13.61;95.01;102142.47;10472036;28;20059;-66
2023/10/04 02:09:26;;;;;;;7.38;2.20;;;;;;;13.53;94.73;102123.59;10470018;28;20045;-65
2023/10/04 02:14:48;;;;;;;10.25;2.28;;;;;;;13.55;95.07;102121.81;10473067;28;20466;-65
2023/10/04 02:20:13;;;;;;;9.13;1.95;;;;;;;13.56;95.29;102128.72;10473712;28;20048;-65
2023/10/04 02:25:35;;;;;;;11.63;1.97;;;;;;;13.56;95.64;102144.31;10466878;28;20555;-65
2023/10/04 02:30:56;;;;;;;14.45;2.00;;;;;;;13.57;95.16;102140.84;10468593;28;20470;-65
2023/10/04 02:36:18;;;;;;;7.25;1.77;;;;;;;13.58;94.99;102147.75;10472691;28;20052;-65
2023/10/04 02:41:41;;;;;;;10.80;1.90;;;;;;;13.59;94.92;102133.84;10466842;28;20094;-66
2023/10/04 02:47:07;;;;;;;12.10;2.28;;;;;;;13.56;95.27;102149.53;10472510;28;20060;-65
2023/10/04 02:52:29;;;;;;;10.57;1.90;;;;;;;13.57;95.13;102135.66;10481808;28;20119;-65
2023/10/04 02:57:51;;;;;;;7.30;1.88;;;;;;;13.53;95.81;102139.19;10469247;28;20386;-65
2023/10/04 03:03:13;;;;;;;10.20;1.90;;;;;;;13.53;95.50;102128.78;10478650;28;20886;-65
2023/10/04 03:08:35;;;;;;;9.50;2.10;;;;;;;13.54;96.23;102138.28;10463478;28;20091;-66
2023/10/04 03:13:59;;;;;;;5.82;1.75;;;;;;;13.53;95.74;102136.59;10471379;28;20996;-65
2023/10/04 03:19:21;;;;;;;10.43;1.80;;;;;;;13.55;95.58;102145.22;10470068;28;20053;-65
2023/10/04 03:24:43;;;;;;;8.02;1.65;;;;;;;13.54;95.38;102138.28;10465118;28;20110;-65
2023/10/04 03:30:06;;;;;;;7.25;1.95;;;;;;;13.54;95.91;102156.50;10466913;28;20041;-65
2023/10/04 03:35:29;;;;;;;11.55;2.25;;;;;;;13.56;95.61;102155.59;10468721;28;20386;-65
2023/10/04 03:40:55;;;;;;;9.60;2.15;;;;;;;13.53;96.36;102160.00;10473442;28;20101;-65
2023/10/04 03:46:18;;;;;;;8.52;1.92;;;;;;;13.49;96.17;102174.81;10468799;28;20040;-65
2023/10/04 03:51:41;;;;;;;15.85;2.08;;;;;;;13.50;96.13;102180.84;10468058;28;20135;-65
2023/10/04 03:57:06;;;;;;;12.35;2.17;;;;;;;13.42;96.04;102185.38;10466632;28;20048;-65
2023/10/04 04:02:28;;;;;;;9.18;1.92;;;;;;;13.37;96.70;102176.81;10471178;28;20061;-65
2023/10/04 04:07:51;;;;;;;16.45;1.90;;;;;;;13.39;96.85;102188.88;10466097;28;20044;-65
2023/10/04 04:13:13;;;;;;;8.60;2.03;;;;;;;13.39;96.75;102190.59;10468921;28;20568;-65
2023/10/04 04:18:37;;;;;;;10.52;1.90;;;;;;;13.41;96.62;102181.03;10469339;28;20068;-65
2023/10/04 04:24:03;;;;;;;8.18;1.77;;;;;;;13.39;96.99;102182.81;10485056;28;20601;-66
2023/10/04 04:29:25;;;;;;;12.80;1.98;;;;;;;13.36;96.61;102191.53;10461901;28;21113;-66
2023/10/04 04:34:47;;;;;;;10.45;1.90;;;;;;;13.30;97.52;102190.78;10469627;28;20048;-66
2023/10/04 04:40:09;;;;;;;15.65;2.30;;;;;;;13.26;97.02;102191.75;10471691;28;20131;-66
2023/10/04 04:45:31;;;;;;;14.75;2.00;;;;;;;13.24;97.39;102204.75;10474924;28;20044;-66
2023/10/04 04:50:57;;;;;;;10.30;1.88;;;;;;;13.18;97.41;102202.28;10466132;28;20643;-66
2023/10/04 04:56:23;;;;;;;15.82;1.88;;;;;;;13.16;97.26;102203.19;10474709;28;20048;-66
2023/10/04 05:01:44;;;;;;;10.25;1.98;;;;;;;13.16;97.47;102209.25;10465824;28;20059;-66
2023/10/04 05:07:09;;;;;;;8.13;1.77;;;;;;;13.16;97.96;102216.19;10468446;28;20036;-66
2023/10/04 05:12:31;;;;;;;12.45;2.30;;;;;;;13.14;97.63;102221.44;10477154;28;20052;-66
2023/10/04 05:17:53;;;;;;;10.57;1.85;;;;;;;13.16;97.51;102221.41;10483185;28;20052;-66
2023/10/04 05:23:14;;;;;;;15.27;2.00;;;;;;;13.16;97.78;102216.19;10473795;28;20501;-66
2023/10/04 05:28:36;;;;;;;10.52;2.03;;;;;;;13.20;98.23;102223.06;10473981;28;20043;-66
2023/10/04 05:33:57;;;;;;;11.52;2.10;;;;;;;13.22;97.41;102223.88;10479778;28;20453;-66
2023/10/04 05:39:20;;;;;;;6.85;1.77;;;;;;;13.21;97.74;102232.56;10477519;28;20045;-66
2023/10/04 05:44:41;;;;;;;12.68;2.28;;;;;;;13.24;97.52;102229.91;10455347;28;20094;-66
2023/10/04 05:50:08;;;;;;;9.93;1.85;;;;;;;13.25;97.69;102231.63;10468012;28;20126;-66
2023/10/04 05:55:30;;;;;;;11.93;2.42;;;;;;;13.24;97.71;102224.72;10477079;28;20068;-65
2023/10/04 06:00:52;;;;;;;17.15;2.40;;;;;;;13.26;97.32;102234.19;10472112;28;20071;-65
2023/10/04 06:06:15;;;;;;;9.13;2.08;;;;;;;13.27;97.67;102237.66;10463862;28;20705;-66
2023/10/04 06:11:37;;;;;;;13.88;2.42;;;;;;;13.26;97.73;102254.16;10473665;28;20065;-66
2023/10/04 06:16:59;;;;;;;14.85;2.30;;;;;;;13.28;97.83;102262.75;10469046;28;20129;-66
2023/10/04 06:22:20;;;;;;;10.73;2.08;;;;;;;13.27;97.36;102261.06;10472966;28;20088;-66
2023/10/04 06:27:42;;;;;;;16.90;2.72;;;;;;;13.30;97.49;102277.44;10456852;28;20074;-66
2023/10/04 06:33:08;;;;;;;22.50;2.70;;;;;;;13.31;97.96;102294.78;10468770;28;20059;-66
2023/10/04 06:38:29;;;;;;;8.48;2.15;;;;;;;13.34;97.15;102304.25;10471890;28;20063;-66
2023/10/04 06:43:51;;;;;;;11.10;2.25;;;;;;;13.34;97.39;102309.44;10471718;28;20049;-66
2023/10/04 06:49:14;;;;;;;9.35;2.55;;;;;;;13.36;96.75;102302.47;10466059;28;20091;-66
2023/10/04 06:54:36;;;;;;;12.07;2.40;;;;;;;13.40;96.65;102307.63;10472525;28;20175;-66
2023/10/04 06:59:59;;;;;;;11.50;2.92;;;;;;;13.47;97.15;102318.75;10471379;28;20071;-66
2023/10/04 07:05:24;;;;;;;10.85;2.63;;;;;;;13.51;96.76;102323.03;10469785;28;20095;-66
2023/10/04 07:10:45;;;;;;;14.73;2.40;;;;;;;13.54;96.46;102329.03;10484567;28;20047;-66
2023/10/04 07:16:07;;;;;;;18.35;2.72;;;;;;;13.62;96.43;102321.09;10472744;28;20054;-65
2023/10/04 07:21:29;;;;;;;13.73;2.53;;;;;;;13.69;96.47;102327.88;10467889;28;20067;-65
2023/10/04 07:26:55;;;;;;;12.77;2.67;;;;;;;13.77;95.51;102342.44;10470291;28;20047;-66
2023/10/04 07:32:17;;;;;;;10.27;2.33;;;;;;;13.85;96.03;102347.50;10470399;28;20045;-66
2023/10/04 07:37:42;;;;;;;10.80;2.33;;;;;;;13.96;95.15;102358.56;10478741;28;20099;-66
2023/10/04 07:43:04;;;;;;;9.80;2.65;;;;;;;14.04;95.21;102362.75;10456929;28;20063;-65
2023/10/04 07:48:26;;;;;;;11.70;2.35;;;;;;;14.15;94.26;102365.16;10456719;28;20137;-66
2023/10/04 07:53:47;;;;;;;13.45;2.75;;;;;;;14.26;94.12;102359.72;10469390;28;20079;-65
2023/10/04 07:59:09;;;;;;;13.48;2.35;;;;;;;14.33;94.36;102377.81;10486836;28;20075;-65
2023/10/04 08:04:33;;;;;;;10.40;2.40;;;;;;;14.42;93.93;102364.63;10488367;28;20111;-66
2023/10/04 08:09:56;;;;;;;14.90;2.85;;;;;;;14.55;93.39;102375.63;10467896;28;20056;-66
2023/10/04 08:15:26;;;;;;;11.10;2.75;;;;;;;14.64;93.01;102376.28;10465775;28;20453;-66
2023/10/04 08:20:48;;;;;;;13.00;2.95;;;;;;;14.75;92.41;102384.72;10466107;28;20045;-66
2023/10/04 08:26:15;;;;;;;11.27;2.55;;;;;;;14.82;92.29;102386.31;10465922;28;20044;-66
2023/10/04 08:31:37;;;;;;;10.88;3.08;;;;;;;14.91;91.65;102377.41;10469156;28;20056;-65
2023/10/04 08:36:59;;;;;;;15.73;2.78;;;;;;;15.03;90.96;102367.53;10480074;28;20041;-66
2023/10/04 08:42:23;;;;;;;15.57;3.05;;;;;;;15.11;90.89;102363.00;10473374;28;20044;-65
2023/10/04 08:47:57;;;;;;;14.23;3.03;;;;;;;15.22;90.43;102373.19;10475943;28;20056;-66
2023/10/04 08:53:29;;;;;;;13.23;2.92;;;;;;;15.36;89.42;102378.06;10491432;28;20056;-66
2023/10/04 08:58:51;;;;;;;11.48;2.60;;;;;;;15.47;89.14;102386.53;10474409;28;20051;-66
2023/10/04 09:04:18;;;;;;;11.82;3.08;;;;;;;15.50;89.80;102382.09;10468662;28;20424;-66
2023/10/04 09:09:41;;;;;;;16.63;3.15;;;;;;;15.66;89.08;102385.13;10472218;28;20136;-66
2023/10/04 09:15:05;;;;;;;15.87;3.13;;;;;;;15.78;88.44;102397.88;10474128;28;20562;-66
2023/10/04 09:20:31;;;;;;;16.48;3.47;;;;;;;15.96;87.73;102402.63;10467784;28;20040;-66
2023/10/04 09:25:55;;;;;;;15.13;3.58;;;;;;;16.01;85.86;102390.28;10480776;28;20079;-66
2023/10/04 09:31:19;;;;;;;11.13;2.58;;;;;;;16.13;85.99;102383.88;10473793;28;20082;-66
2023/10/04 09:36:42;;;;;;;12.40;2.85;;;;;;;16.28;86.60;102392.13;10484602;28;20055;-66
2023/10/04 09:42:04;;;;;;;12.68;3.30;;;;;;;16.42;84.16;102396.97;10468165;28;20055;-65
2023/10/04 09:47:37;;;;;;;14.27;3.42;;;;;;;16.44;84.14;102401.25;10481784;28;20514;-65
2023/10/04 09:52:59;;;;;;;14.30;3.40;;;;;;;16.51;83.24;102397.59;10461277;28;20123;-65
2023/10/04 09:58:24;;;;;;;12.68;3.00;;;;;;;16.57;84.63;102397.38;10474540;28;20533;-65
2023/10/04 10:03:54;;;;;;;12.95;3.42;;;;;;;16.64;82.48;102422.47;10473138;28;20599;-66
2023/10/04 10:09:22;;;;;;;11.68;3.00;;;;;;;16.70;83.16;102419.66;10468257;28;20036;-66
2023/10/04 10:14:45;;;;;;;13.63;3.38;;;;;;;16.75;83.11;102415.16;10484854;28;20554;-65
2023/10/04 10:20:09;;;;;;;13.38;3.45;;;;;;;16.82;81.59;102403.63;10473202;28;20064;-65
2023/10/04 10:25:37;;;;;;;15.05;3.95;;;;;;;16.97;80.59;102416.22;10470400;28;20053;-66
2023/10/04 10:31:00;;;;;;;13.73;3.67;;;;;;;17.14;80.37;102404.38;10464306;28;20171;-65
2023/10/04 10:36:24;;;;;;;16.20;3.40;;;;;;;17.23;81.05;102411.94;10469001;28;20052;-65
2023/10/04 10:41:51;;;;;;;16.48;3.58;;;;;;;17.30;79.31;102395.13;10467937;28;20140;-65
2023/10/04 10:47:14;;;;;;;15.18;3.67;;;;;;;17.36;78.25;102410.63;10467088;28;20052;-65
2023/10/04 10:52:41;;;;;;;14.00;3.50;;;;;;;17.29;77.36;102398.66;10467311;28;20067;-65
2023/10/04 10:58:03;;;;;;;18.70;4.22;;;;;;;17.34;77.18;102391.50;10483900;28;20041;-65
2023/10/04 11:03:25;;;;;;;10.02;3.25;;;;;;;17.39;77.63;102390.44;10495105;28;20127;-65
2023/10/04 11:08:51;;;;;;;14.30;3.43;;;;;;;17.46;74.62;102385.84;10478382;28;20047;-65
2023/10/04 11:14:16;;;;;;;8.70;3.22;;;;;;;17.53;75.51;102390.88;10470894;28;20477;-65
2023/10/04 11:19:37;;;;;;;10.73;3.50;;;;;;;17.55;76.91;102386.44;10470617;28;20045;-65
2023/10/04 11:25:00;;;;;;;11.98;3.40;;;;;;;17.63;75.46;102378.31;10466954;28;20051;-65
2023/10/04 11:30:23;;;;;;;13.18;3.20;;;;;;;17.67;74.95;102375.53;10479418;28;20131;-65
2023/10/04 11:35:47;;;;;;;14.40;3.60;;;;;;;17.70;73.64;102390.28;10479694;28;20082;-65
2023/10/04 11:41:11;;;;;;;18.02;3.97;;;;;;;17.77;72.77;102376.06;10485643;28;20101;-65
2023/10/04 11:47:03;;;;;;;9.82;3.30;;;;;;;17.82;71.42;102368.91;10480520;28;20055;-65
2023/10/04 11:52:30;;;;;;;12.07;3.42;;;;;;;17.79;73.79;102376.88;10485201;28;20414;-66
2023/10/04 11:57:52;;;;;;;9.30;3.28;;;;;;;17.79;72.64;102364.66;10462888;28;20055;-65
2023/10/04 12:03:14;;;;;;;8.98;3.50;;;;;;;17.76;72.64;102356.03;10476717;28;20063;-65
2023/10/04 12:08:36;;;;;;;11.23;3.30;;;;;;;17.86;74.64;102349.56;10470143;28;20041;-65
2023/10/04 12:13:58;;;;;;;10.40;3.58;;;;;;;17.89;72.75;102362.56;10465012;28;20063;-65
2023/10/04 12:19:20;;;;;;;11.60;3.63;;;;;;;17.82;70.42;102353.19;10467637;28;20680;-65
2023/10/04 12:24:44;;;;;;;10.88;3.60;;;;;;;17.80;71.67;102360.28;10467537;28;20564;-65
2023/10/04 12:30:07;;;;;;;15.65;4.10;;;;;;;17.76;73.43;102356.03;10465703;28;20055;-65
2023/10/04 12:35:29;;;;;;;9.82;3.63;;;;;;;17.72;73.74;102362.28;10470273;28;20461;-65
2023/10/04 12:40:51;;;;;;;11.98;3.90;;;;;;;17.61;73.82;102354.81;10467435;28;20134;-65
2023/10/04 12:46:13;;;;;;;14.82;3.63;;;;;;;17.61;74.88;102353.94;10483245;28;20048;-66
2023/10/04 12:51:35;;;;;;;15.27;4.05;;;;;;;17.60;74.08;102367.97;10468656;28;20040;-65
2023/10/04 12:56:57;;;;;;;13.52;3.50;;;;;;;17.58;74.62;102375.00;10462439;28;20053;-65
2023/10/04 13:02:22;;;;;;;15.18;3.60;;;;;;;17.54;74.21;102368.16;10476505;28;20041;-66
2023/10/04 13:07:43;;;;;;;15.32;3.97;;;;;;;17.53;75.49;102371.69;10470542;28;20200;-66
2023/10/04 13:13:08;;;;;;;10.77;3.55;;;;;;;17.56;74.39;102363.75;10467527;28;20055;-66
2023/10/04 13:18:30;;;;;;;14.15;3.88;;;;;;;17.58;75.81;102354.06;10463923;28;20076;-66
2023/10/04 13:23:51;;;;;;;13.43;3.45;;;;;;;17.56;75.65;102345.41;10469323;28;20057;-66
2023/10/04 13:29:14;;;;;;;10.48;3.53;;;;;;;17.64;75.41;102348.59;10464613;28;20055;-66
2023/10/04 13:34:36;;;;;;;12.82;3.60;;;;;;;17.66;74.75;102338.94;10472279;28;20135;-65
2023/10/04 13:39:57;;;;;;;16.20;3.92;;;;;;;17.69;75.12;102336.22;10479833;28;20503;-65
2023/10/04 13:45:19;;;;;;;13.50;3.88;;;;;;;17.67;73.78;102351.13;10475097;28;20122;-65
2023/10/04 13:50:42;;;;;;;11.85;4.07;;;;;;;17.67;75.53;102344.09;10478717;28;20497;-65
2023/10/04 13:56:08;;;;;;;13.65;3.40;;;;;;;17.69;73.93;102336.22;10472112;28;20493;-65
2023/10/04 14:01:30;;;;;;;;;;;;;;;17.73;72.76;102332.56;10469714;28;20060;-65
2023/10/04 14:06:52;;;;;;;10.38;3.97;;;;;;;17.72;74.08;102338.72;10471270;28;19967;-65
2023/10/04 14:12:13;;;;;;;10.80;3.40;;;;;;;17.71;73.83;102321.28;10464456;28;20137;-65
2023/10/04 14:17:35;;;;;;;9.80;3.58;;;;;;;17.72;73.92;102315.16;10466192;28;20148;-65
2023/10/04 14:22:56;;;;;;;10.55;3.80;;;;;;;17.75;73.61;102325.50;10467798;28;20174;-65
2023/10/04 14:28:18;;;;;;;13.95;3.58;;;;;;;17.76;72.77;102328.06;10473622;28;20526;-65
2023/10/04 14:33:41;;;;;;;11.02;3.35;;;;;;;17.76;72.97;102327.25;10465759;28;20055;-65
2023/10/04 14:39:05;;;;;;;12.18;2.97;;;;;;;17.75;73.57;102320.28;10467801;28;20052;-65
2023/10/04 14:44:27;;;;;;;11.80;2.90;;;;;;;17.71;72.24;102319.53;10500030;28;20104;-65
2023/10/04 14:49:48;;;;;;;8.80;2.85;;;;;;;17.62;73.02;102309.38;10473259;28;20041;-65
2023/10/04 14:55:16;;;;;;;8.65;2.88;;;;;;;17.61;73.00;102301.59;10467304;28;20056;-65
2023/10/04 15:00:38;;;;;;;7.53;2.80;;;;;;;17.51;73.43;102294.94;10469306;28;20473;-65
2023/10/04 15:06:00;;;;;;;8.57;2.70;;;;;;;17.49;74.36;102294.19;10470555;28;20056;-65
2023/10/04 15:11:33;;;;;;;7.18;3.05;;;;;;;17.48;74.77;102279.38;10471815;28;20136;-64
2023/10/04 15:16:55;;;;;;;11.05;3.45;;;;;;;17.48;75.11;102279.38;10481603;28;20111;-66
2023/10/04 15:22:17;;;;;;;12.38;3.00;;;;;;;17.45;75.57;102263.75;10488309;28;20039;-64
2023/10/04 15:27:50;;;;;;;12.73;3.25;;;;;;;17.43;76.57;102249.84;10483823;28;20080;-64
2023/10/04 15:33:12;;;;;;;12.73;3.40;;;;;;;17.40;75.89;102268.25;10466824;28;20064;-64
2023/10/04 15:38:33;;;;;;;9.70;3.00;;;;;;;17.37;77.29;102256.16;10464834;28;20072;-64
2023/10/04 15:43:55;;;;;;;10.32;2.97;;;;;;;17.34;77.28;102264.09;10475655;28;20064;-65
2023/10/04 15:49:17;;;;;;;14.13;3.30;;;;;;;17.34;77.51;102250.19;10466813;28;20461;-65
2023/10/04 15:54:38;;;;;;;11.50;3.60;;;;;;;17.31;78.44;102247.66;10465836;28;20048;-65
2023/10/04 16:00:00;;;;;;;12.93;3.30;;;;;;;17.25;77.95;102250.50;10469670;28;20548;-65
2023/10/04 16:05:22;;;;;;;11.35;3.13;;;;;;;17.23;77.96;102234.88;10464711;28;20056;-64
2023/10/04 16:10:44;;;;;;;18.98;3.50;;;;;;;17.18;78.28;102228.91;10474536;28;20036;-65
2023/10/04 16:16:06;;;;;;;11.65;3.72;;;;;;;17.18;78.55;102238.56;10464143;28;20139;-65
2023/10/04 16:21:30;;;;;;;14.38;3.33;;;;;;;17.13;78.18;102249.16;10473485;28;20048;-65
2023/10/04 16:26:52;;;;;;;15.18;3.17;;;;;;;17.04;78.54;102247.72;10466095;28;20051;-64
2023/10/04 16:32:14;;;;;;;9.23;3.00;;;;;;;17.01;78.82;102241.75;10468375;28;20037;-65
2023/10/04 16:37:36;;;;;;;11.27;3.50;;;;;;;16.93;79.09;102228.06;10454147;28;20049;-64
2023/10/04 16:42:58;;;;;;;12.88;3.53;;;;;;;16.91;78.83;102235.09;10480090;28;20489;-65
2023/10/04 16:48:20;;;;;;;10.80;3.10;;;;;;;16.86;78.75;102243.13;10465068;28;20194;-65
2023/10/04 16:53:42;;;;;;;11.43;3.42;;;;;;;16.83;79.56;102243.19;10466962;28;20051;-65
2023/10/04 16:59:03;;;;;;;10.88;3.40;;;;;;;16.81;79.99;102234.53;10453769;28;20053;-65
2023/10/04 17:04:25;;;;;;;10.48;3.63;;;;;;;16.78;80.52;102245.09;10476463;28;20075;-65
2023/10/04 17:09:47;;;;;;;15.55;3.75;;;;;;;16.76;80.59;102231.22;10477309;28;20086;-65
2023/10/04 17:15:11;;;;;;;10.85;3.75;;;;;;;16.69;80.54;102237.56;10489140;28;20097;-65
2023/10/04 17:20:34;;;;;;;16.63;4.40;;;;;;;16.63;80.36;102239.50;10483174;28;20045;-65
2023/10/04 17:25:55;;;;;;;12.00;3.38;;;;;;;16.57;80.33;102251.00;10472060;28;20129;-65
2023/10/04 17:31:17;;;;;;;14.43;4.00;;;;;;;16.52;80.74;102247.69;10474642;28;20381;-65
2023/10/04 17:36:39;;;;;;;10.73;3.35;;;;;;;16.45;80.73;102243.53;10473830;28;20048;-64
2023/10/04 17:42:01;;;;;;;11.65;3.67;;;;;;;16.42;80.83;102255.84;10469731;28;20481;-64
2023/10/04 17:47:23;;;;;;;10.27;3.35;;;;;;;16.37;81.41;102263.81;10467172;28;20052;-65
2023/10/04 17:52:45;;;;;;;12.18;3.88;;;;;;;16.26;81.35;102260.69;10488858;28;20045;-65
2023/10/04 17:58:07;;;;;;;15.55;4.50;;;;;;;16.20;81.82;102265.25;10476648;28;20053;-65
2023/10/04 18:03:29;;;;;;;13.18;3.70;;;;;;;16.16;82.22;102259.25;10475796;28;20117;-65
2023/10/04 18:08:51;;;;;;;9.77;3.60;;;;;;;16.11;82.13;102255.94;10489712;28;20099;-65
2023/10/04 18:14:15;;;;;;;10.48;3.45;;;;;;;16.09;82.41;102257.75;10476197;28;20427;-65
2023/10/04 18:19:36;;;;;;;10.15;3.95;;;;;;;16.06;82.81;102260.44;10473474;28;20040;-65
2023/10/04 18:24:58;;;;;;;17.95;4.00;;;;;;;16.05;82.61;102261.34;10486394;28;20140;-65
2023/10/04 18:30:21;;;;;;;13.48;4.20;;;;;;;16.04;82.49;102246.59;10481609;28;20064;-65
2023/10/04 18:35:42;;;;;;;18.98;4.03;;;;;;;16.05;82.78;102236.09;10471683;28;20429;-65
2023/10/04 18:41:05;;;;;;;9.60;4.38;;;;;;;16.06;82.63;102242.16;10467340;28;20119;-65
2023/10/04 18:46:27;;;;;;;16.67;3.83;;;;;;;16.05;82.22;102235.22;10470480;28;20095;-65
2023/10/04 18:51:48;;;;;;;10.25;3.88;;;;;;;16.05;82.61;102238.69;10473478;28;20131;-65
2023/10/04 18:57:10;;;;;;;15.15;4.53;;;;;;;16.07;82.42;102243.88;10479405;28;20068;-64
2023/10/04 19:02:32;;;;;;;10.68;3.78;;;;;;;16.01;83.00;102239.69;10469939;28;20068;-65
2023/10/04 19:07:54;;;;;;;14.48;3.80;;;;;;;15.98;82.62;102234.56;10476191;28;20048;-65
2023/10/04 19:13:15;;;;;;;17.40;3.88;;;;;;;15.94;82.84;102224.25;10473569;28;20044;-65
2023/10/04 19:18:38;;;;;;;15.05;3.85;;;;;;;15.89;82.53;102224.41;10450408;28;20076;-65
2023/10/04 19:24:01;;;;;;;10.05;3.50;;;;;;;15.85;82.47;102219.28;10472825;28;20055;-65
2023/10/04 19:29:22;;;;;;;11.15;3.97;;;;;;;15.80;83.08;102214.19;10468755;28;20059;-65
2023/10/04 19:34:44;;;;;;;8.98;3.40;;;;;;;15.76;82.83;102212.59;10468745;28;20054;-65
2023/10/04 19:40:07;;;;;;;10.07;3.50;;;;;;;15.75;83.52;102205.66;10454965;28;20105;-65
2023/10/04 19:45:30;;;;;;;9.90;3.50;;;;;;;15.67;83.59;102191.13;10472637;28;20933;-65
2023/10/04 19:50:54;;;;;;;10.38;3.00;;;;;;;15.56;83.63;102193.19;10467549;28;20196;-65
2023/10/04 19:56:15;;;;;;;9.68;3.08;;;;;;;15.54;83.98;102205.41;10464698;28;20137;-65
2023/10/04 20:01:37;;;;;;;9.75;2.97;;;;;;;15.45;84.49;102203.06;10469752;28;20048;-65
2023/10/04 20:07:03;;;;;;;7.20;2.70;;;;;;;15.42;84.13;102187.50;10470250;28;20041;-65
2023/10/04 20:12:25;;;;;;;8.60;2.35;;;;;;;15.44;84.16;102190.94;10464948;28;20041;-65
2023/10/04 20:17:47;;;;;;;11.13;3.17;;;;;;;15.41;83.19;102193.63;10469889;28;20051;-65
2023/10/04 20:23:09;;;;;;;14.00;2.70;;;;;;;15.38;83.22;102188.47;10470947;28;20497;-65
2023/10/04 20:28:30;;;;;;;12.68;2.60;;;;;;;15.32;83.29;102188.63;10462503;28;20058;-65
2023/10/04 20:33:52;;;;;;;10.40;2.17;;;;;;;15.28;83.20;102179.16;10463636;28;20645;-65
2023/10/04 20:39:15;;;;;;;11.35;2.50;;;;;;;15.31;83.02;102185.16;10470750;28;20052;-65
2023/10/04 20:44:36;;;;;;;10.00;2.40;;;;;;;15.30;82.94;102182.59;10473232;28;20049;-65
2023/10/04 20:49:58;;;;;;;7.15;1.88;;;;;;;15.24;82.47;102170.56;10473565;28;20742;-65
2023/10/04 20:55:21;;;;;;;7.50;2.10;;;;;;;15.21;82.69;102159.38;10473499;28;20036;-66
2023/10/04 21:00:43;;;;;;;10.65;2.00;;;;;;;15.15;82.75;102149.97;10473423;28;20048;-66
2023/10/04 21:06:07;;;;;;;5.85;1.75;;;;;;;15.08;82.71;102144.06;10473565;28;20072;-65
2023/10/04 21:11:30;;;;;;;8.70;1.70;;;;;;;15.04;82.59;102137.22;10486843;28;20049;-65
2023/10/04 21:16:52;;;;;;;10.98;2.10;;;;;;;15.06;82.79;102129.34;10476959;28;20130;-65
2023/10/04 21:22:14;;;;;;;8.65;2.00;;;;;;;15.03;82.75;102132.91;10475071;28;20667;-65
2023/10/04 21:27:36;;;;;;;7.53;1.73;;;;;;;15.01;82.83;102121.69;10474667;28;20049;-65
2023/10/04 21:33:03;;;;;;;6.97;1.50;;;;;;;14.98;83.21;102116.53;10467222;28;20380;-65
2023/10/04 21:38:26;;;;;;;5.68;1.58;;;;;;;14.93;83.53;102108.00;10472438;28;20084;-65
2023/10/04 21:44:00;;;;;;;10.27;1.88;;;;;;;14.89;83.30;102102.88;10473455;28;20136;-65
2023/10/04 21:49:23;;;;;;;8.13;1.58;;;;;;;14.87;82.83;102108.16;10472527;28;20255;-65
2023/10/04 21:54:44;;;;;;;10.55;1.50;;;;;;;14.86;83.17;102109.06;10468238;28;20161;-65
2023/10/04 22:00:22;;;;;;;10.77;1.67;;;;;;;14.86;83.32;102100.38;10488605;28;20052;-65
2023/10/04 22:05:43;;;;;;;12.25;1.67;;;;;;;14.84;83.19;102089.13;10468671;28;20118;-65
2023/10/04 22:11:05;;;;;;;7.72;1.25;;;;;;;14.82;83.58;102094.41;10470159;28;20045;-65
2023/10/04 22:16:27;;;;;;;8.30;1.60;;;;;;;14.77;83.49;102082.38;10478004;28;20049;-65
2023/10/04 22:21:49;;;;;;;7.05;1.60;;;;;;;14.81;83.57;102084.00;10472698;28;20056;-64
2023/10/04 22:27:12;;;;;;;6.25;1.67;;;;;;;14.81;83.95;102074.47;10486758;28;20227;-65
2023/10/04 22:32:35;;;;;;;7.32;1.63;;;;;;;14.82;83.54;102075.28;10471271;28;20044;-65
2023/10/04 22:37:57;;;;;;;6.97;1.55;;;;;;;14.79;84.01;102068.44;10456210;28;20064;-65
2023/10/04 22:43:20;;;;;;;7.60;1.98;;;;;;;14.81;84.02;102069.25;10458629;28;20053;-65
2023/10/04 22:48:42;;;;;;;4.90;1.60;;;;;;;14.83;83.90;102058.78;10471470;28;20048;-65
2023/10/04 22:54:06;;;;;;;7.43;1.58;;;;;;;14.82;84.02;102072.69;10468739;28;20416;-65
2023/10/04 22:59:28;;;;;;;14.63;2.08;;;;;;;14.85;83.95;102063.03;10486325;28;20056;-65
2023/10/04 23:04:50;;;;;;;6.32;1.60;;;;;;;14.84;83.88;102053.50;10471089;28;20053;-65
2023/10/04 23:10:21;;;;;;;7.43;1.50;;;;;;;14.86;83.70;102048.25;10466727;28;20492;-65
2023/10/04 23:15:46;;;;;;;9.63;1.52;;;;;;;14.86;84.09;102038.69;10469893;28;20079;-65
2023/10/04 23:21:12;;;;;;;7.03;1.80;;;;;;;14.85;83.72;102047.38;10472641;28;20163;-65
2023/10/04 23:26:34;;;;;;;5.72;1.60;;;;;;;14.84;83.53;102035.28;10464717;28;20102;-65
2023/10/04 23:31:56;;;;;;;5.22;1.48;;;;;;;14.84;83.87;102035.28;10481966;28;20516;-65
2023/10/04 23:37:23;;;;;;;8.38;2.20;;;;;;;14.81;84.16;102030.16;10467709;28;20044;-65
2023/10/04 23:42:46;;;;;;;9.18;1.83;;;;;;;14.79;83.78;102021.53;10470181;28;20056;-65
2023/10/04 23:48:20;;;;;;;9.48;1.90;;;;;;;14.75;84.39;102024.25;10468148;28;20098;-65
2023/10/04 23:59:04;;;;;;;7.75;1.65;;;;;;;14.71;84.53;102013.06;10468490;28;20052;-65
